sensor_id;sensor_type;location;lat;lon;timestamp;P1;durP1;ratioP1;P2;durP2;ratioP2
45208;SDS011;30951;43.994;26.260;2023-10-19T00:01:58;8.30;;;6.45;;
45208;SDS011;30951;43.994;26.260;2023-10-19T00:04:26;11.30;;;6.47;;
45208;SDS011;30951;43.994;26.260;2023-10-19T00:06:56;12.02;;;6.82;;
45208;SDS011;30951;43.994;26.260;2023-10-19T00:09:22;11.25;;;6.95;;
45208;SDS011;30951;43.994;26.260;2023-10-19T00:11:48;9.63;;;7.68;;
45208;SDS011;30951;43.994;26.260;2023-10-19T00:14:17;10.15;;;7.40;;
45208;SDS011;30951;43.994;26.260;2023-10-19T00:16:43;11.50;;;5.63;;
45208;SDS011;30951;43.994;26.260;2023-10-19T00:19:21;12.18;;;7.95;;
45208;SDS011;30951;43.994;26.260;2023-10-19T00:21:47;8.43;;;5.20;;
45208;SDS011;30951;43.994;26.260;2023-10-19T00:24:17;14.85;;;4.25;;
45208;SDS011;30951;43.994;26.260;2023-10-19T00:26:44;8.57;;;4.55;;
45208;SDS011;30951;43.994;26.260;2023-10-19T00:29:09;8.07;;;4.57;;
45208;SDS011;30951;43.994;26.260;2023-10-19T00:31:53;7.00;;;4.10;;
45208;SDS011;30951;43.994;26.260;2023-10-19T00:34:21;12.90;;;7.13;;
45208;SDS011;30951;43.994;26.260;2023-10-19T00:36:49;8.90;;;4.47;;
45208;SDS011;30951;43.994;26.260;2023-10-19T00:39:16;7.45;;;4.57;;
45208;SDS011;30951;43.994;26.260;2023-10-19T00:41:46;12.20;;;6.63;;
45208;SDS011;30951;43.994;26.260;2023-10-19T00:44:13;8.68;;;4.63;;
45208;SDS011;30951;43.994;26.260;2023-10-19T00:46:47;11.05;;;6.38;;
45208;SDS011;30951;43.994;26.260;2023-10-19T00:51:55;6.90;;;4.63;;
45208;SDS011;30951;43.994;26.260;2023-10-19T00:57:01;8.20;;;5.22;;
45208;SDS011;30951;43.994;26.260;2023-10-19T00:59:39;11.00;;;4.93;;
45208;SDS011;30951;43.994;26.260;2023-10-19T01:02:09;7.63;;;4.63;;
45208;SDS011;30951;43.994;26.260;2023-10-19T01:04:50;12.47;;;5.70;;
45208;SDS011;30951;43.994;26.260;2023-10-19T01:07:26;13.10;;;5.50;;
45208;SDS011;30951;43.994;26.260;2023-10-19T01:09:56;10.52;;;5.50;;
45208;SDS011;30951;43.994;26.260;2023-10-19T01:12:26;9.82;;;6.22;;
45208;SDS011;30951;43.994;26.260;2023-10-19T01:15:08;7.80;;;6.18;;
45208;SDS011;30951;43.994;26.260;2023-10-19T01:17:58;8.60;;;5.68;;
45208;SDS011;30951;43.994;26.260;2023-10-19T01:20:24;15.05;;;7.28;;
45208;SDS011;30951;43.994;26.260;2023-10-19T01:22:55;11.50;;;6.60;;
45208;SDS011;30951;43.994;26.260;2023-10-19T01:25:46;13.05;;;5.78;;
45208;SDS011;30951;43.994;26.260;2023-10-19T01:28:25;10.02;;;5.97;;
45208;SDS011;30951;43.994;26.260;2023-10-19T01:31:11;7.47;;;5.28;;
45208;SDS011;30951;43.994;26.260;2023-10-19T01:33:53;8.48;;;5.40;;
45208;SDS011;30951;43.994;26.260;2023-10-19T01:36:23;7.35;;;5.75;;
45208;SDS011;30951;43.994;26.260;2023-10-19T01:38:49;10.38;;;5.32;;
45208;SDS011;30951;43.994;26.260;2023-10-19T01:41:19;8.82;;;5.85;;
45208;SDS011;30951;43.994;26.260;2023-10-19T01:43:46;9.70;;;6.28;;
45208;SDS011;30951;43.994;26.260;2023-10-19T01:46:19;10.35;;;6.50;;
45208;SDS011;30951;43.994;26.260;2023-10-19T01:48:58;10.65;;;6.35;;
45208;SDS011;30951;43.994;26.260;2023-10-19T01:51:26;7.55;;;5.65;;
45208;SDS011;30951;43.994;26.260;2023-10-19T01:53:54;10.23;;;5.78;;
45208;SDS011;30951;43.994;26.260;2023-10-19T01:56:23;7.80;;;6.32;;
45208;SDS011;30951;43.994;26.260;2023-10-19T01:58:49;9.20;;;6.65;;
45208;SDS011;30951;43.994;26.260;2023-10-19T02:01:19;14.43;;;6.28;;
45208;SDS011;30951;43.994;26.260;2023-10-19T02:03:49;9.82;;;5.50;;
45208;SDS011;30951;43.994;26.260;2023-10-19T02:06:24;13.35;;;6.68;;
45208;SDS011;30951;43.994;26.260;2023-10-19T02:09:06;11.90;;;5.57;;
45208;SDS011;30951;43.994;26.260;2023-10-19T02:11:54;12.82;;;5.95;;
45208;SDS011;30951;43.994;26.260;2023-10-19T02:14:21;7.47;;;5.95;;
45208;SDS011;30951;43.994;26.260;2023-10-19T02:16:49;8.82;;;5.70;;
45208;SDS011;30951;43.994;26.260;2023-10-19T02:19:17;8.90;;;6.32;;
45208;SDS011;30951;43.994;26.260;2023-10-19T02:21:44;8.38;;;5.15;;
45208;SDS011;30951;43.994;26.260;2023-10-19T02:24:13;8.32;;;5.55;;
45208;SDS011;30951;43.994;26.260;2023-10-19T02:26:42;8.90;;;5.65;;
45208;SDS011;30951;43.994;26.260;2023-10-19T02:29:08;7.30;;;5.90;;
45208;SDS011;30951;43.994;26.260;2023-10-19T02:31:38;13.20;;;6.30;;
45208;SDS011;30951;43.994;26.260;2023-10-19T02:34:09;9.15;;;6.53;;
45208;SDS011;30951;43.994;26.260;2023-10-19T02:36:36;21.33;;;6.40;;
45208;SDS011;30951;43.994;26.260;2023-10-19T02:39:06;9.93;;;5.55;;
45208;SDS011;30951;43.994;26.260;2023-10-19T02:41:39;11.30;;;6.80;;
45208;SDS011;30951;43.994;26.260;2023-10-19T02:44:10;8.18;;;6.38;;
45208;SDS011;30951;43.994;26.260;2023-10-19T02:46:43;12.00;;;7.50;;
45208;SDS011;30951;43.994;26.260;2023-10-19T02:49:13;12.75;;;7.00;;
45208;SDS011;30951;43.994;26.260;2023-10-19T02:51:43;15.27;;;6.97;;
45208;SDS011;30951;43.994;26.260;2023-10-19T02:54:19;9.45;;;6.80;;
45208;SDS011;30951;43.994;26.260;2023-10-19T02:56:46;13.25;;;6.38;;
45208;SDS011;30951;43.994;26.260;2023-10-19T02:59:17;13.18;;;7.25;;
45208;SDS011;30951;43.994;26.260;2023-10-19T03:01:47;13.80;;;6.22;;
45208;SDS011;30951;43.994;26.260;2023-10-19T03:04:14;10.63;;;6.35;;
45208;SDS011;30951;43.994;26.260;2023-10-19T03:06:40;13.98;;;6.45;;
45208;SDS011;30951;43.994;26.260;2023-10-19T03:09:06;11.05;;;6.18;;
45208;SDS011;30951;43.994;26.260;2023-10-19T03:11:42;9.13;;;6.75;;
45208;SDS011;30951;43.994;26.260;2023-10-19T03:14:09;11.10;;;6.57;;
45208;SDS011;30951;43.994;26.260;2023-10-19T03:16:39;11.18;;;6.78;;
45208;SDS011;30951;43.994;26.260;2023-10-19T03:19:07;12.20;;;6.68;;
45208;SDS011;30951;43.994;26.260;2023-10-19T03:21:33;14.55;;;6.60;;
45208;SDS011;30951;43.994;26.260;2023-10-19T03:24:10;14.98;;;7.00;;
45208;SDS011;30951;43.994;26.260;2023-10-19T03:26:51;18.80;;;7.47;;
45208;SDS011;30951;43.994;26.260;2023-10-19T03:29:19;13.05;;;7.03;;
45208;SDS011;30951;43.994;26.260;2023-10-19T03:31:56;10.45;;;5.75;;
45208;SDS011;30951;43.994;26.260;2023-10-19T03:34:22;12.80;;;5.93;;
45208;SDS011;30951;43.994;26.260;2023-10-19T03:36:49;11.88;;;6.95;;
45208;SDS011;30951;43.994;26.260;2023-10-19T03:39:15;11.18;;;5.85;;
45208;SDS011;30951;43.994;26.260;2023-10-19T03:41:43;28.80;;;6.40;;
45208;SDS011;30951;43.994;26.260;2023-10-19T03:44:12;9.65;;;5.93;;
45208;SDS011;30951;43.994;26.260;2023-10-19T03:46:49;9.55;;;5.88;;
45208;SDS011;30951;43.994;26.260;2023-10-19T03:49:26;9.73;;;5.88;;
45208;SDS011;30951;43.994;26.260;2023-10-19T03:52:02;14.90;;;6.97;;
45208;SDS011;30951;43.994;26.260;2023-10-19T03:54:45;16.77;;;5.32;;
45208;SDS011;30951;43.994;26.260;2023-10-19T03:57:15;9.68;;;6.05;;
45208;SDS011;30951;43.994;26.260;2023-10-19T03:59:45;13.52;;;6.32;;
45208;SDS011;30951;43.994;26.260;2023-10-19T04:02:12;9.35;;;5.68;;
45208;SDS011;30951;43.994;26.260;2023-10-19T04:04:46;9.35;;;6.40;;
45208;SDS011;30951;43.994;26.260;2023-10-19T04:07:17;12.75;;;6.15;;
45208;SDS011;30951;43.994;26.260;2023-10-19T04:09:56;10.18;;;6.43;;
45208;SDS011;30951;43.994;26.260;2023-10-19T04:12:30;9.68;;;5.80;;
45208;SDS011;30951;43.994;26.260;2023-10-19T04:14:56;24.27;;;6.93;;
45208;SDS011;30951;43.994;26.260;2023-10-19T04:17:23;8.77;;;5.90;;
45208;SDS011;30951;43.994;26.260;2023-10-19T04:19:49;12.27;;;6.07;;
45208;SDS011;30951;43.994;26.260;2023-10-19T04:22:17;11.60;;;6.00;;
45208;SDS011;30951;43.994;26.260;2023-10-19T04:24:52;14.82;;;5.25;;
45208;SDS011;30951;43.994;26.260;2023-10-19T04:27:17;9.32;;;5.50;;
45208;SDS011;30951;43.994;26.260;2023-10-19T04:29:46;6.80;;;5.05;;
45208;SDS011;30951;43.994;26.260;2023-10-19T04:32:14;10.27;;;5.53;;
45208;SDS011;30951;43.994;26.260;2023-10-19T04:34:43;9.00;;;5.65;;
45208;SDS011;30951;43.994;26.260;2023-10-19T04:37:09;17.15;;;5.70;;
45208;SDS011;30951;43.994;26.260;2023-10-19T04:39:37;8.63;;;5.47;;
45208;SDS011;30951;43.994;26.260;2023-10-19T04:42:03;9.77;;;6.00;;
45208;SDS011;30951;43.994;26.260;2023-10-19T04:44:30;8.60;;;6.10;;
45208;SDS011;30951;43.994;26.260;2023-10-19T04:46:56;19.90;;;6.75;;
45208;SDS011;30951;43.994;26.260;2023-10-19T04:49:22;29.20;;;8.05;;
45208;SDS011;30951;43.994;26.260;2023-10-19T04:51:47;24.77;;;6.53;;
45208;SDS011;30951;43.994;26.260;2023-10-19T04:54:13;8.55;;;6.03;;
45208;SDS011;30951;43.994;26.260;2023-10-19T04:56:38;12.82;;;7.15;;
45208;SDS011;30951;43.994;26.260;2023-10-19T04:59:04;14.30;;;6.28;;
45208;SDS011;30951;43.994;26.260;2023-10-19T05:01:29;15.90;;;7.55;;
45208;SDS011;30951;43.994;26.260;2023-10-19T05:03:58;13.73;;;7.63;;
45208;SDS011;30951;43.994;26.260;2023-10-19T05:06:24;12.30;;;7.10;;
45208;SDS011;30951;43.994;26.260;2023-10-19T05:08:50;11.25;;;7.22;;
45208;SDS011;30951;43.994;26.260;2023-10-19T05:11:17;21.05;;;8.10;;
45208;SDS011;30951;43.994;26.260;2023-10-19T05:13:42;14.13;;;6.45;;
45208;SDS011;30951;43.994;26.260;2023-10-19T05:16:08;13.25;;;7.18;;
45208;SDS011;30951;43.994;26.260;2023-10-19T05:18:33;16.45;;;6.45;;
45208;SDS011;30951;43.994;26.260;2023-10-19T05:20:59;14.73;;;6.85;;
45208;SDS011;30951;43.994;26.260;2023-10-19T05:23:26;14.80;;;7.10;;
45208;SDS011;30951;43.994;26.260;2023-10-19T05:25:53;14.70;;;7.53;;
45208;SDS011;30951;43.994;26.260;2023-10-19T05:28:25;13.18;;;6.38;;
45208;SDS011;30951;43.994;26.260;2023-10-19T05:30:50;14.32;;;7.53;;
45208;SDS011;30951;43.994;26.260;2023-10-19T05:33:16;14.73;;;6.85;;
45208;SDS011;30951;43.994;26.260;2023-10-19T05:35:46;14.73;;;5.85;;
45208;SDS011;30951;43.994;26.260;2023-10-19T05:38:12;10.10;;;6.88;;
45208;SDS011;30951;43.994;26.260;2023-10-19T05:40:38;13.13;;;6.80;;
45208;SDS011;30951;43.994;26.260;2023-10-19T05:43:04;8.40;;;5.93;;
45208;SDS011;30951;43.994;26.260;2023-10-19T05:45:30;9.73;;;6.50;;
45208;SDS011;30951;43.994;26.260;2023-10-19T05:47:57;10.68;;;6.88;;
45208;SDS011;30951;43.994;26.260;2023-10-19T05:50:23;14.02;;;6.70;;
45208;SDS011;30951;43.994;26.260;2023-10-19T05:52:49;11.82;;;7.32;;
45208;SDS011;30951;43.994;26.260;2023-10-19T05:55:14;14.40;;;7.65;;
45208;SDS011;30951;43.994;26.260;2023-10-19T05:57:40;12.35;;;8.00;;
45208;SDS011;30951;43.994;26.260;2023-10-19T06:00:10;12.02;;;7.72;;
45208;SDS011;30951;43.994;26.260;2023-10-19T06:02:43;12.43;;;7.72;;
45208;SDS011;30951;43.994;26.260;2023-10-19T06:05:14;10.27;;;7.13;;
45208;SDS011;30951;43.994;26.260;2023-10-19T06:07:41;13.98;;;6.65;;
45208;SDS011;30951;43.994;26.260;2023-10-19T06:10:07;9.82;;;5.93;;
45208;SDS011;30951;43.994;26.260;2023-10-19T06:12:33;8.10;;;5.90;;
45208;SDS011;30951;43.994;26.260;2023-10-19T06:14:59;11.40;;;5.40;;
45208;SDS011;30951;43.994;26.260;2023-10-19T06:17:26;5.03;;;4.03;;
45208;SDS011;30951;43.994;26.260;2023-10-19T06:19:53;6.50;;;3.67;;
45208;SDS011;30951;43.994;26.260;2023-10-19T06:22:19;8.25;;;3.97;;
45208;SDS011;30951;43.994;26.260;2023-10-19T06:24:44;8.52;;;4.30;;
45208;SDS011;30951;43.994;26.260;2023-10-19T06:27:10;9.35;;;4.35;;
45208;SDS011;30951;43.994;26.260;2023-10-19T06:29:35;6.75;;;4.35;;
45208;SDS011;30951;43.994;26.260;2023-10-19T06:32:01;7.60;;;4.20;;
45208;SDS011;30951;43.994;26.260;2023-10-19T06:34:27;12.52;;;5.30;;
45208;SDS011;30951;43.994;26.260;2023-10-19T06:36:53;5.35;;;4.05;;
45208;SDS011;30951;43.994;26.260;2023-10-19T06:39:20;7.13;;;3.50;;
45208;SDS011;30951;43.994;26.260;2023-10-19T06:41:48;8.82;;;4.43;;
45208;SDS011;30951;43.994;26.260;2023-10-19T06:44:14;11.52;;;3.60;;
45208;SDS011;30951;43.994;26.260;2023-10-19T06:46:42;11.73;;;5.90;;
45208;SDS011;30951;43.994;26.260;2023-10-19T06:49:08;15.63;;;7.13;;
45208;SDS011;30951;43.994;26.260;2023-10-19T06:51:34;30.42;;;13.45;;
45208;SDS011;30951;43.994;26.260;2023-10-19T06:53:59;33.90;;;14.60;;
45208;SDS011;30951;43.994;26.260;2023-10-19T06:56:25;17.55;;;7.45;;
45208;SDS011;30951;43.994;26.260;2023-10-19T06:58:51;10.50;;;4.57;;
45208;SDS011;30951;43.994;26.260;2023-10-19T07:01:16;5.45;;;2.65;;
45208;SDS011;30951;43.994;26.260;2023-10-19T07:03:43;3.00;;;2.30;;
45208;SDS011;30951;43.994;26.260;2023-10-19T07:06:09;9.98;;;2.30;;
45208;SDS011;30951;43.994;26.260;2023-10-19T07:08:39;3.47;;;1.73;;
45208;SDS011;30951;43.994;26.260;2023-10-19T07:11:06;5.90;;;2.20;;
45208;SDS011;30951;43.994;26.260;2023-10-19T07:13:32;7.53;;;1.83;;
45208;SDS011;30951;43.994;26.260;2023-10-19T07:15:59;5.32;;;1.80;;
45208;SDS011;30951;43.994;26.260;2023-10-19T07:18:24;3.72;;;1.83;;
45208;SDS011;30951;43.994;26.260;2023-10-19T07:20:50;2.60;;;1.77;;
45208;SDS011;30951;43.994;26.260;2023-10-19T07:23:18;9.65;;;5.38;;
45208;SDS011;30951;43.994;26.260;2023-10-19T07:25:44;6.55;;;4.25;;
45208;SDS011;30951;43.994;26.260;2023-10-19T07:28:11;28.63;;;14.63;;
45208;SDS011;30951;43.994;26.260;2023-10-19T07:30:38;12.20;;;7.15;;
45208;SDS011;30951;43.994;26.260;2023-10-19T07:33:04;20.92;;;8.77;;
45208;SDS011;30951;43.994;26.260;2023-10-19T07:35:33;11.85;;;7.15;;
45208;SDS011;30951;43.994;26.260;2023-10-19T07:38:00;72.03;;;30.75;;
45208;SDS011;30951;43.994;26.260;2023-10-19T07:40:26;33.08;;;19.75;;
45208;SDS011;30951;43.994;26.260;2023-10-19T07:42:53;43.75;;;20.58;;
45208;SDS011;30951;43.994;26.260;2023-10-19T07:45:20;19.55;;;9.20;;
45208;SDS011;30951;43.994;26.260;2023-10-19T07:47:46;6.10;;;2.63;;
45208;SDS011;30951;43.994;26.260;2023-10-19T07:50:12;55.42;;;31.00;;
45208;SDS011;30951;43.994;26.260;2023-10-19T07:52:41;93.78;;;45.72;;
45208;SDS011;30951;43.994;26.260;2023-10-19T07:55:11;8.82;;;6.18;;
45208;SDS011;30951;43.994;26.260;2023-10-19T07:57:37;8.70;;;4.55;;
45208;SDS011;30951;43.994;26.260;2023-10-19T08:00:03;25.52;;;13.30;;
45208;SDS011;30951;43.994;26.260;2023-10-19T08:02:29;12.05;;;3.63;;
45208;SDS011;30951;43.994;26.260;2023-10-19T08:04:55;6.30;;;2.70;;
45208;SDS011;30951;43.994;26.260;2023-10-19T08:07:21;8.48;;;3.50;;
45208;SDS011;30951;43.994;26.260;2023-10-19T08:09:47;6.13;;;2.33;;
45208;SDS011;30951;43.994;26.260;2023-10-19T08:12:13;6.47;;;2.55;;
45208;SDS011;30951;43.994;26.260;2023-10-19T08:14:39;4.22;;;3.00;;
45208;SDS011;30951;43.994;26.260;2023-10-19T08:17:05;9.02;;;2.92;;
45208;SDS011;30951;43.994;26.260;2023-10-19T08:19:34;3.83;;;3.08;;
45208;SDS011;30951;43.994;26.260;2023-10-19T08:22:01;5.13;;;2.97;;
45208;SDS011;30951;43.994;26.260;2023-10-19T08:24:26;3.03;;;2.67;;
45208;SDS011;30951;43.994;26.260;2023-10-19T08:26:54;6.68;;;3.03;;
45208;SDS011;30951;43.994;26.260;2023-10-19T08:29:20;3.92;;;2.70;;
45208;SDS011;30951;43.994;26.260;2023-10-19T08:31:46;5.82;;;2.60;;
45208;SDS011;30951;43.994;26.260;2023-10-19T08:34:12;4.72;;;2.83;;
45208;SDS011;30951;43.994;26.260;2023-10-19T08:36:38;4.20;;;2.35;;
45208;SDS011;30951;43.994;26.260;2023-10-19T08:39:04;2.63;;;2.35;;
45208;SDS011;30951;43.994;26.260;2023-10-19T08:41:36;3.40;;;2.22;;
45208;SDS011;30951;43.994;26.260;2023-10-19T08:44:03;7.55;;;2.25;;
45208;SDS011;30951;43.994;26.260;2023-10-19T08:46:29;4.10;;;2.70;;
45208;SDS011;30951;43.994;26.260;2023-10-19T08:48:55;5.65;;;2.40;;
45208;SDS011;30951;43.994;26.260;2023-10-19T08:51:22;2.70;;;2.50;;
45208;SDS011;30951;43.994;26.260;2023-10-19T08:53:51;2.70;;;2.25;;
45208;SDS011;30951;43.994;26.260;2023-10-19T08:56:18;2.88;;;2.58;;
45208;SDS011;30951;43.994;26.260;2023-10-19T08:58:44;5.05;;;2.15;;
45208;SDS011;30951;43.994;26.260;2023-10-19T09:01:11;2.78;;;2.40;;
45208;SDS011;30951;43.994;26.260;2023-10-19T09:03:37;4.28;;;2.00;;
45208;SDS011;30951;43.994;26.260;2023-10-19T09:06:04;2.35;;;2.08;;
45208;SDS011;30951;43.994;26.260;2023-10-19T09:08:30;8.65;;;2.28;;
45208;SDS011;30951;43.994;26.260;2023-10-19T09:11:09;2.05;;;1.85;;
45208;SDS011;30951;43.994;26.260;2023-10-19T09:13:46;2.60;;;2.38;;
45208;SDS011;30951;43.994;26.260;2023-10-19T09:16:14;10.13;;;2.90;;
45208;SDS011;30951;43.994;26.260;2023-10-19T09:18:40;3.03;;;2.75;;
45208;SDS011;30951;43.994;26.260;2023-10-19T09:21:06;18.40;;;3.22;;
45208;SDS011;30951;43.994;26.260;2023-10-19T09:23:32;3.47;;;3.00;;
45208;SDS011;30951;43.994;26.260;2023-10-19T09:26:00;3.78;;;2.55;;
45208;SDS011;30951;43.994;26.260;2023-10-19T09:28:30;3.92;;;2.67;;
45208;SDS011;30951;43.994;26.260;2023-10-19T09:30:58;3.50;;;2.53;;
45208;SDS011;30951;43.994;26.260;2023-10-19T09:33:25;4.40;;;2.45;;
45208;SDS011;30951;43.994;26.260;2023-10-19T09:35:52;4.72;;;2.75;;
45208;SDS011;30951;43.994;26.260;2023-10-19T09:38:26;11.95;;;2.80;;
45208;SDS011;30951;43.994;26.260;2023-10-19T09:40:52;3.25;;;2.45;;
45208;SDS011;30951;43.994;26.260;2023-10-19T09:46:01;4.80;;;2.58;;
45208;SDS011;30951;43.994;26.260;2023-10-19T09:48:31;3.10;;;2.40;;
45208;SDS011;30951;43.994;26.260;2023-10-19T09:51:00;8.15;;;2.70;;
45208;SDS011;30951;43.994;26.260;2023-10-19T09:53:28;6.80;;;2.53;;
45208;SDS011;30951;43.994;26.260;2023-10-19T09:55:56;5.82;;;2.80;;
45208;SDS011;30951;43.994;26.260;2023-10-19T09:58:24;5.93;;;2.72;;
45208;SDS011;30951;43.994;26.260;2023-10-19T10:00:54;5.35;;;3.20;;
45208;SDS011;30951;43.994;26.260;2023-10-19T10:06:29;2.88;;;2.67;;
45208;SDS011;30951;43.994;26.260;2023-10-19T10:08:58;5.00;;;2.78;;
45208;SDS011;30951;43.994;26.260;2023-10-19T10:11:26;4.47;;;2.92;;
45208;SDS011;30951;43.994;26.260;2023-10-19T10:13:53;2.63;;;2.28;;
45208;SDS011;30951;43.994;26.260;2023-10-19T10:16:21;2.55;;;2.30;;
45208;SDS011;30951;43.994;26.260;2023-10-19T10:18:49;4.50;;;2.55;;
45208;SDS011;30951;43.994;26.260;2023-10-19T10:21:19;4.65;;;2.53;;
45208;SDS011;30951;43.994;26.260;2023-10-19T10:26:16;8.45;;;2.75;;
45208;SDS011;30951;43.994;26.260;2023-10-19T10:29:08;7.75;;;3.25;;
45208;SDS011;30951;43.994;26.260;2023-10-19T10:31:45;4.63;;;2.83;;
45208;SDS011;30951;43.994;26.260;2023-10-19T10:37:05;11.00;;;2.80;;
45208;SDS011;30951;43.994;26.260;2023-10-19T10:39:33;5.30;;;3.05;;
45208;SDS011;30951;43.994;26.260;2023-10-19T10:42:02;4.10;;;2.60;;
45208;SDS011;30951;43.994;26.260;2023-10-19T10:44:43;2.78;;;2.45;;
45208;SDS011;30951;43.994;26.260;2023-10-19T10:47:18;4.47;;;2.40;;
45208;SDS011;30951;43.994;26.260;2023-10-19T10:49:53;5.53;;;2.33;;
45208;SDS011;30951;43.994;26.260;2023-10-19T10:55:02;3.15;;;2.10;;
45208;SDS011;30951;43.994;26.260;2023-10-19T10:57:32;4.10;;;2.20;;
45208;SDS011;30951;43.994;26.260;2023-10-19T11:00:05;4.32;;;2.67;;
45208;SDS011;30951;43.994;26.260;2023-10-19T11:02:35;16.02;;;2.13;;
45208;SDS011;30951;43.994;26.260;2023-10-19T11:05:01;1.98;;;1.85;;
45208;SDS011;30951;43.994;26.260;2023-10-19T11:07:27;4.07;;;2.28;;
45208;SDS011;30951;43.994;26.260;2023-10-19T11:09:53;3.47;;;2.35;;
45208;SDS011;30951;43.994;26.260;2023-10-19T11:12:19;2.58;;;1.83;;
45208;SDS011;30951;43.994;26.260;2023-10-19T11:14:52;4.25;;;2.38;;
45208;SDS011;30951;43.994;26.260;2023-10-19T11:17:21;2.10;;;1.90;;
45208;SDS011;30951;43.994;26.260;2023-10-19T11:19:53;3.13;;;2.15;;
45208;SDS011;30951;43.994;26.260;2023-10-19T11:22:21;2.95;;;1.98;;
45208;SDS011;30951;43.994;26.260;2023-10-19T11:24:47;5.35;;;2.10;;
45208;SDS011;30951;43.994;26.260;2023-10-19T11:27:12;2.72;;;2.30;;
45208;SDS011;30951;43.994;26.260;2023-10-19T11:29:38;4.00;;;2.17;;
45208;SDS011;30951;43.994;26.260;2023-10-19T11:32:03;2.15;;;1.98;;
45208;SDS011;30951;43.994;26.260;2023-10-19T11:34:29;7.45;;;2.78;;
45208;SDS011;30951;43.994;26.260;2023-10-19T11:36:58;5.15;;;2.00;;
45208;SDS011;30951;43.994;26.260;2023-10-19T11:39:25;4.38;;;2.70;;
45208;SDS011;30951;43.994;26.260;2023-10-19T11:41:51;3.38;;;2.38;;
45208;SDS011;30951;43.994;26.260;2023-10-19T11:44:18;5.65;;;2.10;;
45208;SDS011;30951;43.994;26.260;2023-10-19T11:46:45;5.40;;;2.20;;
45208;SDS011;30951;43.994;26.260;2023-10-19T11:49:10;3.97;;;2.65;;
45208;SDS011;30951;43.994;26.260;2023-10-19T11:51:36;3.95;;;2.10;;
45208;SDS011;30951;43.994;26.260;2023-10-19T11:54:04;6.78;;;2.15;;
45208;SDS011;30951;43.994;26.260;2023-10-19T11:56:31;6.25;;;2.22;;
45208;SDS011;30951;43.994;26.260;2023-10-19T11:58:57;7.28;;;2.65;;
45208;SDS011;30951;43.994;26.260;2023-10-19T12:01:22;8.30;;;2.47;;
45208;SDS011;30951;43.994;26.260;2023-10-19T12:03:50;4.13;;;2.22;;
45208;SDS011;30951;43.994;26.260;2023-10-19T12:06:16;5.43;;;2.50;;
45208;SDS011;30951;43.994;26.260;2023-10-19T12:08:45;4.05;;;2.30;;
45208;SDS011;30951;43.994;26.260;2023-10-19T12:11:12;5.78;;;2.75;;
45208;SDS011;30951;43.994;26.260;2023-10-19T12:13:42;7.45;;;2.17;;
45208;SDS011;30951;43.994;26.260;2023-10-19T12:16:12;8.77;;;2.55;;
45208;SDS011;30951;43.994;26.260;2023-10-19T12:18:40;9.90;;;2.10;;
45208;SDS011;30951;43.994;26.260;2023-10-19T12:21:07;2.50;;;1.88;;
45208;SDS011;30951;43.994;26.260;2023-10-19T12:23:38;6.20;;;2.28;;
45208;SDS011;30951;43.994;26.260;2023-10-19T12:26:04;8.07;;;2.03;;
45208;SDS011;30951;43.994;26.260;2023-10-19T12:28:37;3.50;;;1.80;;
45208;SDS011;30951;43.994;26.260;2023-10-19T12:31:03;3.65;;;2.00;;
45208;SDS011;30951;43.994;26.260;2023-10-19T12:33:30;5.93;;;2.00;;
45208;SDS011;30951;43.994;26.260;2023-10-19T12:35:56;5.28;;;2.33;;
45208;SDS011;30951;43.994;26.260;2023-10-19T12:38:22;3.08;;;2.28;;
45208;SDS011;30951;43.994;26.260;2023-10-19T12:40:49;8.63;;;1.90;;
45208;SDS011;30951;43.994;26.260;2023-10-19T12:43:19;5.90;;;1.83;;
45208;SDS011;30951;43.994;26.260;2023-10-19T12:45:47;3.55;;;2.05;;
45208;SDS011;30951;43.994;26.260;2023-10-19T12:48:18;2.38;;;2.00;;
45208;SDS011;30951;43.994;26.260;2023-10-19T12:50:44;8.25;;;2.05;;
45208;SDS011;30951;43.994;26.260;2023-10-19T12:53:10;4.97;;;1.95;;
45208;SDS011;30951;43.994;26.260;2023-10-19T12:55:36;3.05;;;1.33;;
45208;SDS011;30951;43.994;26.260;2023-10-19T12:58:05;2.10;;;1.30;;
45208;SDS011;30951;43.994;26.260;2023-10-19T13:00:37;2.33;;;1.60;;
45208;SDS011;30951;43.994;26.260;2023-10-19T13:03:15;7.85;;;1.80;;
45208;SDS011;30951;43.994;26.260;2023-10-19T13:05:43;2.92;;;1.65;;
45208;SDS011;30951;43.994;26.260;2023-10-19T13:08:10;2.92;;;1.65;;
45208;SDS011;30951;43.994;26.260;2023-10-19T13:10:39;10.73;;;1.63;;
45208;SDS011;30951;43.994;26.260;2023-10-19T13:13:12;5.03;;;2.13;;
45208;SDS011;30951;43.994;26.260;2023-10-19T13:15:40;7.95;;;1.33;;
45208;SDS011;30951;43.994;26.260;2023-10-19T13:18:07;3.72;;;1.60;;
45208;SDS011;30951;43.994;26.260;2023-10-19T13:20:38;9.82;;;1.67;;
45208;SDS011;30951;43.994;26.260;2023-10-19T13:23:06;14.40;;;2.28;;
45208;SDS011;30951;43.994;26.260;2023-10-19T13:25:54;3.80;;;1.98;;
45208;SDS011;30951;43.994;26.260;2023-10-19T13:28:51;2.13;;;1.48;;
45208;SDS011;30951;43.994;26.260;2023-10-19T13:31:38;5.10;;;1.42;;
45208;SDS011;30951;43.994;26.260;2023-10-19T13:34:23;2.25;;;1.65;;
45208;SDS011;30951;43.994;26.260;2023-10-19T13:37:01;5.40;;;1.98;;
45208;SDS011;30951;43.994;26.260;2023-10-19T13:39:45;1.98;;;1.83;;
45208;SDS011;30951;43.994;26.260;2023-10-19T13:42:29;5.50;;;1.35;;
45208;SDS011;30951;43.994;26.260;2023-10-19T13:45:13;1.73;;;1.23;;
45208;SDS011;30951;43.994;26.260;2023-10-19T13:47:58;1.77;;;1.10;;
45208;SDS011;30951;43.994;26.260;2023-10-19T13:50:46;3.13;;;1.73;;
45208;SDS011;30951;43.994;26.260;2023-10-19T13:53:33;1.63;;;1.52;;
45208;SDS011;30951;43.994;26.260;2023-10-19T13:56:18;2.78;;;1.63;;
45208;SDS011;30951;43.994;26.260;2023-10-19T13:59:02;2.88;;;1.50;;
45208;SDS011;30951;43.994;26.260;2023-10-19T14:01:47;3.72;;;1.90;;
45208;SDS011;30951;43.994;26.260;2023-10-19T14:04:31;4.15;;;1.63;;
45208;SDS011;30951;43.994;26.260;2023-10-19T14:07:15;4.57;;;1.65;;
45208;SDS011;30951;43.994;26.260;2023-10-19T14:09:59;2.13;;;1.67;;
45208;SDS011;30951;43.994;26.260;2023-10-19T14:12:43;2.25;;;1.40;;
45208;SDS011;30951;43.994;26.260;2023-10-19T14:15:27;2.05;;;1.85;;
45208;SDS011;30951;43.994;26.260;2023-10-19T14:18:11;12.23;;;2.10;;
45208;SDS011;30951;43.994;26.260;2023-10-19T14:20:55;9.13;;;1.90;;
45208;SDS011;30951;43.994;26.260;2023-10-19T14:23:39;4.35;;;2.03;;
45208;SDS011;30951;43.994;26.260;2023-10-19T14:26:24;4.65;;;1.67;;
45208;SDS011;30951;43.994;26.260;2023-10-19T14:29:08;3.38;;;2.00;;
45208;SDS011;30951;43.994;26.260;2023-10-19T14:31:52;8.02;;;1.90;;
45208;SDS011;30951;43.994;26.260;2023-10-19T14:34:36;10.07;;;2.10;;
45208;SDS011;30951;43.994;26.260;2023-10-19T14:37:21;7.45;;;2.10;;
45208;SDS011;30951;43.994;26.260;2023-10-19T14:40:09;4.40;;;1.80;;
45208;SDS011;30951;43.994;26.260;2023-10-19T14:42:54;6.28;;;2.30;;
45208;SDS011;30951;43.994;26.260;2023-10-19T14:45:40;4.85;;;1.88;;
45208;SDS011;30951;43.994;26.260;2023-10-19T14:48:25;4.20;;;1.60;;
45208;SDS011;30951;43.994;26.260;2023-10-19T14:51:09;7.28;;;2.00;;
45208;SDS011;30951;43.994;26.260;2023-10-19T14:53:35;3.78;;;1.85;;
45208;SDS011;30951;43.994;26.260;2023-10-19T14:56:00;7.47;;;2.47;;
45208;SDS011;30951;43.994;26.260;2023-10-19T14:58:26;4.38;;;1.95;;
45208;SDS011;30951;43.994;26.260;2023-10-19T15:00:52;9.32;;;2.28;;
45208;SDS011;30951;43.994;26.260;2023-10-19T15:03:20;6.60;;;2.63;;
45208;SDS011;30951;43.994;26.260;2023-10-19T15:05:52;9.82;;;5.18;;
45208;SDS011;30951;43.994;26.260;2023-10-19T15:08:18;16.25;;;3.97;;